Time;durP1;ratioP1;P1;durP2;ratioP2;P2;SDS_P1;SDS_P2;PMS_P1;PMS_P2;Temp;Humidity;BMP_temperature;BMP_pressure;BME280_temperature;BME280_humidity;BME280_pressure;Samples;Min_cycle;Max_cycle;Signal;HPM_P1;HPM_P2
2022/05/23 00:00:33;;;;;;;2.70;1.40;;;;;;;;;;5028776;28;20240;-77
2022/05/23 00:03:01;;;;;;;1.40;1.30;;;;;;;;;;5028308;28;20248;-77
2022/05/23 00:05:28;;;;;;;2.37;1.53;;;;;;;;;;5028508;28;20784;-77
2022/05/23 00:07:56;;;;;;;1.67;1.20;;;;;;;;;;5028389;28;20292;-77
2022/05/23 00:10:23;;;;;;;4.87;2.23;;;;;;;;;;5028170;28;20201;-77
2022/05/23 00:12:51;;;;;;;2.30;1.13;;;;;;;;;;5028477;28;20293;-77
2022/05/23 00:15:18;;;;;;;3.67;1.30;;;;;;;;;;5028649;28;20205;-77
2022/05/23 00:17:46;;;;;;;1.90;1.60;;;;;;;;;;5028339;28;20204;-77
2022/05/23 00:20:19;;;;;;;2.73;1.30;;;;;;;;;;5028233;28;20201;-77
2022/05/23 00:22:46;;;;;;;2.10;1.60;;;;;;;;;;5028530;28;20284;-77
2022/05/23 00:25:14;;;;;;;3.70;1.50;;;;;;;;;;5028172;28;20261;-77
2022/05/23 00:27:42;;;;;;;2.40;1.30;;;;;;;;;;5028214;28;20289;-77
2022/05/23 00:30:12;;;;;;;1.43;1.20;;;;;;;;;;5028237;28;20208;-77
2022/05/23 00:35:25;;;;;;;3.43;1.50;;;;;;;;;;5028659;28;20198;-77
2022/05/23 00:37:53;;;;;;;1.90;1.50;;;;;;;;;;5032022;28;20275;-77
2022/05/23 00:40:28;;;;;;;1.80;1.43;;;;;;;;;;5031468;28;20292;-77
2022/05/23 00:43:14;;;;;;;1.40;1.30;;;;;;;;;;5031642;28;20223;-77
2022/05/23 00:45:47;;;;;;;1.50;1.27;;;;;;;;;;5031343;28;20326;-77
2022/05/23 00:48:16;;;;;;;1.53;0.97;;;;;;;;;;5031473;28;20190;-76
2022/05/23 00:50:47;;;;;;;3.50;1.63;;;;;;;;;;5031456;28;20653;-76
2022/05/23 00:53:15;;;;;;;1.37;1.27;;;;;;;;;;5031376;28;20193;-76
2022/05/23 00:55:47;;;;;;;1.67;1.50;;;;;;;;;;5031238;28;20295;-76
2022/05/23 00:58:18;;;;;;;5.90;1.87;;;;;;;;;;5031340;28;20193;-76
2022/05/23 01:00:45;;;;;;;2.03;1.47;;;;;;;;;;5030853;28;20712;-76
2022/05/23 01:03:16;;;;;;;1.63;1.53;;;;;;;;;;5031583;28;20306;-76
2022/05/23 01:05:45;;;;;;;2.03;1.30;;;;;;;;;;5031309;28;20221;-76
2022/05/23 01:08:15;;;;;;;3.20;1.60;;;;;;;;;;5031130;28;20292;-76
2022/05/23 01:10:43;;;;;;;3.47;1.30;;;;;;;;;;5031073;28;20184;-76
2022/05/23 01:13:10;;;;;;;2.33;1.47;;;;;;;;;;5031051;28;20671;-76
2022/05/23 01:15:37;;;;;;;2.33;1.40;;;;;;;;;;5031209;28;20202;-76
2022/05/23 01:18:05;;;;;;;1.70;1.60;;;;;;;;;;5031394;28;20214;-76
2022/05/23 01:20:32;;;;;;;2.90;1.97;;;;;;;;;;5030751;28;20214;-76
2022/05/23 01:23:11;;;;;;;2.03;1.60;;;;;;;;;;5030774;28;20205;-76
2022/05/23 01:25:42;;;;;;;1.90;1.53;;;;;;;;;;5030790;28;20639;-77
2022/05/23 01:28:11;;;;;;;2.27;1.50;;;;;;;;;;5030876;28;20217;-76
2022/05/23 01:30:40;;;;;;;4.67;1.57;;;;;;;;;;5030776;28;20205;-76
2022/05/23 01:33:09;;;;;;;1.77;1.20;;;;;;;;;;5030757;28;20242;-76
2022/05/23 01:35:36;;;;;;;1.50;1.40;;;;;;;;;;5030727;28;20209;-76
2022/05/23 01:38:04;;;;;;;2.17;1.57;;;;;;;;;;5030432;28;20196;-76
2022/05/23 01:40:31;;;;;;;2.20;1.47;;;;;;;;;;5030592;28;20199;-76
2022/05/23 01:43:00;;;;;;;3.13;1.83;;;;;;;;;;5030589;28;20294;-76
2022/05/23 01:45:30;;;;;;;1.60;1.50;;;;;;;;;;5030531;28;20223;-76
2022/05/23 01:47:58;;;;;;;2.30;1.70;;;;;;;;;;5029721;28;20269;-76
2022/05/23 01:50:26;;;;;;;4.83;1.77;;;;;;;;;;5030731;28;20559;-76
2022/05/23 01:52:54;;;;;;;1.47;1.37;;;;;;;;;;5030378;28;20244;-76
2022/05/23 01:55:21;;;;;;;3.20;1.50;;;;;;;;;;5030639;28;20300;-76
2022/05/23 01:57:48;;;;;;;2.57;1.60;;;;;;;;;;5030223;28;20203;-76
2022/05/23 02:03:02;;;;;;;1.50;1.40;;;;;;;;;;5030430;28;20672;-76
2022/05/23 02:05:30;;;;;;;2.27;1.40;;;;;;;;;;5029889;28;20230;-76
2022/05/23 02:07:57;;;;;;;1.40;1.30;;;;;;;;;;5030207;28;20280;-76
2022/05/23 02:10:25;;;;;;;3.60;1.60;;;;;;;;;;5030199;28;20288;-76
2022/05/23 02:12:52;;;;;;;2.10;1.90;;;;;;;;;;5030012;28;20296;-76
2022/05/23 02:15:21;;;;;;;3.73;1.60;;;;;;;;;;5029831;28;20207;-76
2022/05/23 02:17:48;;;;;;;5.33;1.70;;;;;;;;;;5029939;28;20197;-76
2022/05/23 02:20:16;;;;;;;2.00;1.37;;;;;;;;;;5030264;28;20205;-76
2022/05/23 02:22:43;;;;;;;1.50;1.40;;;;;;;;;;5029915;28;20230;-76
2022/05/23 02:25:11;;;;;;;1.50;1.40;;;;;;;;;;5029871;28;20643;-76
2022/05/23 02:27:38;;;;;;;1.87;1.60;;;;;;;;;;5030099;28;20203;-76
2022/05/23 02:30:07;;;;;;;3.57;1.50;;;;;;;;;;5029778;28;20672;-76
2022/05/23 02:32:35;;;;;;;2.50;1.50;;;;;;;;;;5029352;28;20199;-76
2022/05/23 02:35:03;;;;;;;1.53;1.43;;;;;;;;;;5029878;28;20201;-76
2022/05/23 02:37:30;;;;;;;3.07;1.40;;;;;;;;;;5029559;28;20239;-76
2022/05/23 02:39:57;;;;;;;1.53;1.43;;;;;;;;;;5029571;28;20206;-76
2022/05/23 02:42:24;;;;;;;5.27;3.00;;;;;;;;;;5029604;28;20199;-76
2022/05/23 02:44:51;;;;;;;1.70;1.57;;;;;;;;;;5029735;28;20313;-76
2022/05/23 02:47:18;;;;;;;1.80;1.53;;;;;;;;;;5029498;28;20204;-76
2022/05/23 02:49:47;;;;;;;2.13;1.40;;;;;;;;;;5029435;28;20199;-76
2022/05/23 02:52:14;;;;;;;3.53;1.73;;;;;;;;;;5029321;28;20199;-77
2022/05/23 02:54:42;;;;;;;1.70;1.60;;;;;;;;;;5038521;27;20620;-76
2022/05/23 02:57:09;;;;;;;2.77;2.17;;;;;;;;;;5048889;28;20227;-76
2022/05/23 02:59:36;;;;;;;1.93;1.83;;;;;;;;;;5048630;28;20205;-76
2022/05/23 03:04:49;;;;;;;3.63;1.40;;;;;;;;;;5049158;28;20252;-76
2022/05/23 03:07:16;;;;;;;2.93;1.60;;;;;;;;;;5049173;28;20629;-76
2022/05/23 03:09:44;;;;;;;5.10;2.33;;;;;;;;;;5048410;28;20701;-76
2022/05/23 03:12:12;;;;;;;2.80;1.90;;;;;;;;;;5045912;28;20203;-76
2022/05/23 03:14:40;;;;;;;1.90;1.63;;;;;;;;;;5041493;28;20195;-77
2022/05/23 03:17:08;;;;;;;1.87;1.43;;;;;;;;;;5034615;28;20212;-76
2022/05/23 03:19:37;;;;;;;3.23;1.67;;;;;;;;;;5028691;28;20698;-76
2022/05/23 03:27:36;;;;;;;2.90;1.37;;;;;;;;;;5028756;28;20190;-77
2022/05/23 03:30:05;;;;;;;2.00;1.80;;;;;;;;;;5028907;28;20198;-78
2022/05/23 03:32:32;;;;;;;1.67;1.57;;;;;;;;;;5028683;28;20242;-78
2022/05/23 03:34:59;;;;;;;4.27;1.50;;;;;;;;;;5028730;28;20202;-77
2022/05/23 03:37:28;;;;;;;1.97;1.60;;;;;;;;;;5028814;28;20221;-77
2022/05/23 03:39:55;;;;;;;3.00;1.80;;;;;;;;;;5029040;28;20201;-77
2022/05/23 03:42:22;;;;;;;1.57;1.47;;;;;;;;;;5028976;28;20218;-78
2022/05/23 03:44:49;;;;;;;2.40;1.33;;;;;;;;;;5028758;28;20231;-78
2022/05/23 03:47:17;;;;;;;5.27;1.93;;;;;;;;;;5028506;28;20229;-78
2022/05/23 03:49:44;;;;;;;2.53;1.83;;;;;;;;;;5028778;28;20206;-77
2022/05/23 03:52:11;;;;;;;3.43;1.50;;;;;;;;;;5028588;28;20205;-78
2022/05/23 03:54:40;;;;;;;1.80;1.70;;;;;;;;;;5028700;28;20215;-78
2022/05/23 03:57:07;;;;;;;3.30;1.80;;;;;;;;;;5028318;28;20199;-78
2022/05/23 03:59:36;;;;;;;2.53;1.53;;;;;;;;;;5029116;28;20721;-76
2022/05/23 04:02:04;;;;;;;1.63;1.53;;;;;;;;;;5028304;28;20238;-77
2022/05/23 04:04:32;;;;;;;1.70;1.60;;;;;;;;;;5028419;28;20218;-77
2022/05/23 04:07:01;;;;;;;1.83;1.50;;;;;;;;;;5028470;28;20199;-77
2022/05/23 04:09:28;;;;;;;2.67;1.73;;;;;;;;;;5028581;28;20195;-78
2022/05/23 04:11:57;;;;;;;3.53;1.80;;;;;;;;;;5030869;28;20328;-77
2022/05/23 04:14:25;;;;;;;2.33;1.70;;;;;;;;;;5031695;28;20195;-77
2022/05/23 04:16:53;;;;;;;1.73;1.63;;;;;;;;;;5031851;28;20210;-77
2022/05/23 04:19:21;;;;;;;4.73;1.93;;;;;;;;;;5032174;28;20226;-78
2022/05/23 04:21:49;;;;;;;2.27;1.73;;;;;;;;;;5031761;28;20603;-77
2022/05/23 04:24:17;;;;;;;2.90;1.77;;;;;;;;;;5031460;28;20267;-77
2022/05/23 04:26:45;;;;;;;2.20;2.00;;;;;;;;;;5031645;28;20205;-77
2022/05/23 04:29:13;;;;;;;1.73;1.50;;;;;;;;;;5031741;28;20200;-78
2022/05/23 04:31:40;;;;;;;4.53;1.60;;;;;;;;;;5031467;28;20210;-78
2022/05/23 04:36:52;;;;;;;4.37;2.00;;;;;;;;;;5031672;28;20680;-78
2022/05/23 04:39:19;;;;;;;2.27;1.63;;;;;;;;;;5031619;28;20199;-78
2022/05/23 04:41:47;;;;;;;3.43;1.90;;;;;;;;;;5031215;28;20670;-78
2022/05/23 04:44:15;;;;;;;4.33;1.40;;;;;;;;;;5031411;28;20197;-78
2022/05/23 04:49:41;;;;;;;3.50;1.83;;;;;;;;;;5031436;28;20558;-78
2022/05/23 04:49:41;;;;;;;2.43;1.60;;;;;;;;;;5031557;28;20759;-77
2022/05/23 04:52:09;;;;;;;2.47;1.57;;;;;;;;;;5031201;28;20611;-78
2022/05/23 04:54:36;;;;;;;3.60;1.80;;;;;;;;;;5031384;28;20199;-78
2022/05/23 04:57:05;;;;;;;3.43;1.83;;;;;;;;;;5031260;28;20207;-78
2022/05/23 04:59:33;;;;;;;3.93;1.77;;;;;;;;;;5031614;28;20673;-78
2022/05/23 05:02:01;;;;;;;2.10;1.70;;;;;;;;;;5030952;28;20233;-77
2022/05/23 05:04:28;;;;;;;7.27;3.00;;;;;;;;;;5031314;28;20198;-77
2022/05/23 05:06:55;;;;;;;3.13;2.10;;;;;;;;;;5031135;28;20207;-78
2022/05/23 05:09:23;;;;;;;2.47;1.70;;;;;;;;;;5031752;28;20199;-78
2022/05/23 05:11:50;;;;;;;1.70;1.60;;;;;;;;;;5031076;28;20195;-78
2022/05/23 05:14:17;;;;;;;2.90;2.13;;;;;;;;;;5030838;28;20199;-77
2022/05/23 05:16:46;;;;;;;5.70;1.73;;;;;;;;;;5030929;28;20683;-77
2022/05/23 05:19:13;;;;;;;2.90;2.20;;;;;;;;;;5031026;28;20207;-77
2022/05/23 05:21:41;;;;;;;9.03;2.97;;;;;;;;;;5030779;28;20696;-78
2022/05/23 05:24:08;;;;;;;9.57;2.50;;;;;;;;;;5031084;28;20205;-78
2022/05/23 05:26:35;;;;;;;9.93;2.47;;;;;;;;;;5030750;28;20251;-78
2022/05/23 05:29:02;;;;;;;6.70;2.27;;;;;;;;;;5030814;28;20213;-78
2022/05/23 05:31:33;;;;;;;2.57;1.67;;;;;;;;;;5031110;28;20564;-78
2022/05/23 05:34:04;;;;;;;4.10;2.10;;;;;;;;;;5030651;28;20188;-78
2022/05/23 05:36:34;;;;;;;3.93;1.50;;;;;;;;;;5030794;28;20196;-78
2022/05/23 05:39:03;;;;;;;5.03;2.10;;;;;;;;;;5030775;28;20202;-78
2022/05/23 05:41:33;;;;;;;5.53;2.27;;;;;;;;;;5030354;28;20194;-78
2022/05/23 05:44:06;;;;;;;8.80;2.20;;;;;;;;;;5030936;28;20202;-78
2022/05/23 05:46:37;;;;;;;4.67;2.17;;;;;;;;;;5030537;28;20207;-78
2022/05/23 05:49:11;;;;;;;9.23;2.23;;;;;;;;;;5030983;28;20197;-78
2022/05/23 05:51:39;;;;;;;1.93;1.70;;;;;;;;;;5030420;28;20187;-78
2022/05/23 05:54:08;;;;;;;5.40;1.87;;;;;;;;;;5030563;28;20205;-78
2022/05/23 05:56:36;;;;;;;5.07;1.77;;;;;;;;;;5030375;28;20198;-78
2022/05/23 05:59:03;;;;;;;2.23;2.07;;;;;;;;;;5030473;28;20697;-78
2022/05/23 06:01:30;;;;;;;3.27;1.63;;;;;;;;;;5030038;28;20295;-78
2022/05/23 06:03:58;;;;;;;7.00;1.57;;;;;;;;;;5030164;28;20202;-78
2022/05/23 06:11:57;;;;;;;3.63;1.73;;;;;;;;;;4996557;28;20820;-78
2022/05/23 06:14:24;;;;;;;4.30;2.23;;;;;;;;;;5030005;28;20682;-78
2022/05/23 06:16:52;;;;;;;8.63;2.07;;;;;;;;;;5030172;28;20204;-78
2022/05/23 06:19:19;;;;;;;3.63;1.63;;;;;;;;;;5030099;28;20248;-78
2022/05/23 06:21:48;;;;;;;2.80;1.77;;;;;;;;;;5030101;28;20206;-78
2022/05/23 06:24:15;;;;;;;7.00;1.60;;;;;;;;;;5030110;28;20203;-79
2022/05/23 06:26:44;;;;;;;3.20;1.70;;;;;;;;;;5029529;28;20222;-78
2022/05/23 06:29:11;;;;;;;8.53;1.60;;;;;;;;;;5029956;28;20246;-78
2022/05/23 06:31:39;;;;;;;5.17;1.93;;;;;;;;;;5029926;28;20197;-78
2022/05/23 06:34:06;;;;;;;7.10;1.80;;;;;;;;;;5029344;28;20202;-78
2022/05/23 06:36:33;;;;;;;2.63;1.83;;;;;;;;;;5029453;28;20740;-78
2022/05/23 06:39:02;;;;;;;3.73;1.30;;;;;;;;;;5029846;28;20285;-78
2022/05/23 06:41:29;;;;;;;2.87;1.50;;;;;;;;;;5029643;28;20289;-78
2022/05/23 06:43:57;;;;;;;1.83;1.67;;;;;;;;;;5029675;28;20204;-78
2022/05/23 06:46:25;;;;;;;2.30;1.40;;;;;;;;;;5029755;28;20722;-78
2022/05/23 06:48:52;;;;;;;3.80;2.13;;;;;;;;;;5029695;28;20207;-78
2022/05/23 06:51:19;;;;;;;3.00;1.57;;;;;;;;;;5029709;28;20199;-78
2022/05/23 06:53:46;;;;;;;5.03;1.40;;;;;;;;;;5030209;28;20232;-78
2022/05/23 06:56:15;;;;;;;6.43;2.13;;;;;;;;;;5029484;28;20199;-78
2022/05/23 06:58:42;;;;;;;2.23;1.70;;;;;;;;;;5029567;28;20195;-78
2022/05/23 07:01:10;;;;;;;4.23;1.70;;;;;;;;;;5029105;28;20241;-78
2022/05/23 07:03:37;;;;;;;4.03;1.60;;;;;;;;;;5029900;28;20194;-78
2022/05/23 07:14:21;;;;;;;5.53;2.00;;;;;;;;;;5029472;28;20201;-78
2022/05/23 07:16:49;;;;;;;2.50;1.57;;;;;;;;;;5028974;28;20191;-78
2022/05/23 07:19:16;;;;;;;1.97;1.50;;;;;;;;;;5029585;28;20202;-78
2022/05/23 07:21:43;;;;;;;5.20;1.50;;;;;;;;;;5029418;28;20207;-78
2022/05/23 07:24:10;;;;;;;3.07;1.80;;;;;;;;;;5028932;28;20209;-78
2022/05/23 07:26:40;;;;;;;4.83;1.50;;;;;;;;;;5028978;28;20222;-78
2022/05/23 07:29:08;;;;;;;4.10;2.03;;;;;;;;;;5029148;28;20697;-78
2022/05/23 07:31:35;;;;;;;2.77;1.87;;;;;;;;;;5029003;28;20645;-78
2022/05/23 07:34:02;;;;;;;1.67;1.30;;;;;;;;;;5028940;28;20562;-78
2022/05/23 07:36:29;;;;;;;1.83;1.63;;;;;;;;;;5029023;28;20285;-79
2022/05/23 07:38:57;;;;;;;5.20;1.90;;;;;;;;;;5028983;28;20675;-79
2022/05/23 07:41:24;;;;;;;3.17;1.40;;;;;;;;;;5028760;28;20593;-79
2022/05/23 07:43:52;;;;;;;2.70;1.60;;;;;;;;;;5029221;28;20191;-78
2022/05/23 07:46:20;;;;;;;1.40;1.30;;;;;;;;;;5029988;28;20232;-78
2022/05/23 07:48:48;;;;;;;1.63;1.30;;;;;;;;;;5032674;28;20690;-78
2022/05/23 07:51:18;;;;;;;2.20;1.30;;;;;;;;;;5032165;28;20251;-78
2022/05/23 08:02:00;;;;;;;1.47;1.30;;;;;;;;;;5032155;28;20725;-79
2022/05/23 08:04:27;;;;;;;1.13;1.10;;;;;;;;;;5032006;28;20201;-78
2022/05/23 08:06:54;;;;;;;2.80;1.37;;;;;;;;;;5032375;28;20222;-78
2022/05/23 08:09:22;;;;;;;3.73;1.50;;;;;;;;;;5032201;28;20303;-78
2022/05/23 08:11:52;;;;;;;2.43;1.17;;;;;;;;;;5031953;28;20199;-78
2022/05/23 08:14:21;;;;;;;3.67;1.57;;;;;;;;;;5032002;28;20187;-78
2022/05/23 08:16:48;;;;;;;1.53;1.30;;;;;;;;;;5032377;28;20572;-78
2022/05/23 08:19:15;;;;;;;1.40;1.30;;;;;;;;;;5032047;28;20659;-78
2022/05/23 08:21:47;;;;;;;1.30;1.23;;;;;;;;;;5032103;28;20209;-78
2022/05/23 08:24:15;;;;;;;2.57;1.60;;;;;;;;;;5032114;28;20201;-78
2022/05/23 08:26:43;;;;;;;4.73;1.17;;;;;;;;;;5032017;28;20225;-78
2022/05/23 08:29:10;;;;;;;7.80;1.60;;;;;;;;;;5031880;28;20675;-78
2022/05/23 08:31:39;;;;;;;4.00;1.40;;;;;;;;;;5031777;28;20202;-79
2022/05/23 08:34:07;;;;;;;4.17;1.40;;;;;;;;;;5031682;28;20199;-79
2022/05/23 08:36:34;;;;;;;4.10;1.67;;;;;;;;;;5031921;28;20211;-78
2022/05/23 08:39:02;;;;;;;1.47;1.37;;;;;;;;;;5032040;28;20199;-78
2022/05/23 08:41:32;;;;;;;1.20;1.10;;;;;;;;;;5031448;28;20207;-78
2022/05/23 08:44:05;;;;;;;2.00;1.20;;;;;;;;;;5031650;28;20274;-78
2022/05/23 08:46:40;;;;;;;4.13;1.70;;;;;;;;;;5031168;28;20213;-78
2022/05/23 08:49:13;;;;;;;2.73;1.10;;;;;;;;;;5031846;28;20193;-78
2022/05/23 08:51:44;;;;;;;2.90;1.13;;;;;;;;;;5031571;28;20183;-78
2022/05/23 08:54:17;;;;;;;1.80;1.67;;;;;;;;;;5031601;28;20240;-78
2022/05/23 08:56:48;;;;;;;2.97;1.60;;;;;;;;;;5030885;28;20656;-78
2022/05/23 08:59:21;;;;;;;2.37;1.40;;;;;;;;;;5031424;28;20643;-78
2022/05/23 09:01:52;;;;;;;5.50;1.20;;;;;;;;;;5031123;28;20237;-79
2022/05/23 09:04:29;;;;;;;2.50;1.33;;;;;;;;;;5031683;28;20287;-78
2022/05/23 09:06:58;;;;;;;1.43;1.30;;;;;;;;;;5030829;28;20263;-78
2022/05/23 09:09:27;;;;;;;3.67;1.83;;;;;;;;;;5031249;28;20203;-78
2022/05/23 09:11:58;;;;;;;3.13;1.23;;;;;;;;;;5031246;28;20207;-78
2022/05/23 09:14:25;;;;;;;4.40;1.57;;;;;;;;;;5031215;28;20183;-79
2022/05/23 09:16:56;;;;;;;2.13;1.50;;;;;;;;;;5030697;28;20205;-78
2022/05/23 09:19:25;;;;;;;2.33;1.20;;;;;;;;;;5031334;28;20195;-78
2022/05/23 09:24:40;;;;;;;2.77;1.70;;;;;;;;;;5031372;28;20182;-79
2022/05/23 09:27:14;;;;;;;2.17;1.50;;;;;;;;;;5030810;28;20636;-78
2022/05/23 09:29:41;;;;;;;3.70;1.77;;;;;;;;;;5030857;28;20197;-78
2022/05/23 09:32:11;;;;;;;2.00;1.50;;;;;;;;;;5030818;28;20198;-78
2022/05/23 09:34:46;;;;;;;1.37;1.27;;;;;;;;;;5031096;28;20199;-78
2022/05/23 09:37:20;;;;;;;3.90;1.10;;;;;;;;;;5030793;28;20663;-78
2022/05/23 09:39:55;;;;;;;1.50;1.40;;;;;;;;;;5030879;28;20617;-79
2022/05/23 09:48:14;;;;;;;1.90;1.70;;;;;;;;;;5050477;28;20189;-78
2022/05/23 09:50:43;;;;;;;5.07;1.40;;;;;;;;;;5050301;28;20186;-78
2022/05/23 09:53:25;;;;;;;1.93;1.33;;;;;;;;;;5050447;28;20600;-78
2022/05/23 09:55:53;;;;;;;3.60;1.43;;;;;;;;;;5050134;28;20194;-78
2022/05/23 09:58:27;;;;;;;2.10;1.17;;;;;;;;;;5050436;28;20250;-79
2022/05/23 10:01:04;;;;;;;2.37;1.13;;;;;;;;;;5050192;28;20624;-79
2022/05/23 10:03:33;;;;;;;2.13;1.13;;;;;;;;;;5048625;28;20242;-79
2022/05/23 10:06:07;;;;;;;2.10;1.30;;;;;;;;;;5030078;28;20198;-79
2022/05/23 10:08:37;;;;;;;1.23;1.10;;;;;;;;;;5029404;28;20193;-79
2022/05/23 10:11:06;;;;;;;2.50;1.60;;;;;;;;;;5030144;28;20202;-79
2022/05/23 10:13:35;;;;;;;1.30;1.20;;;;;;;;;;5030578;28;20203;-79
2022/05/23 10:16:14;;;;;;;2.00;1.57;;;;;;;;;;5030088;28;20195;-79
2022/05/23 10:18:51;;;;;;;4.00;1.50;;;;;;;;;;5030294;28;20231;-79
2022/05/23 10:21:26;;;;;;;1.40;1.30;;;;;;;;;;5030040;28;20248;-79
2022/05/23 10:24:03;;;;;;;2.83;1.43;;;;;;;;;;5030461;28;20182;-79
2022/05/23 10:26:33;;;;;;;4.13;1.20;;;;;;;;;;5030017;28;20263;-79
2022/05/23 10:29:07;;;;;;;1.77;1.67;;;;;;;;;;5030443;28;20278;-79
2022/05/23 10:31:37;;;;;;;2.57;1.33;;;;;;;;;;5030353;28;20179;-78
2022/05/23 10:34:09;;;;;;;1.97;1.43;;;;;;;;;;5030225;28;20201;-79
2022/05/23 10:36:38;;;;;;;3.43;1.63;;;;;;;;;;5029897;28;20183;-78
2022/05/23 10:42:09;;;;;;;3.80;1.37;;;;;;;;;;5029779;28;20189;-79
2022/05/23 10:44:49;;;;;;;3.13;1.30;;;;;;;;;;5030030;28;20281;-78
2022/05/23 10:47:26;;;;;;;2.60;1.33;;;;;;;;;;5029623;28;20640;-78
2022/05/23 10:50:00;;;;;;;3.63;1.50;;;;;;;;;;5029950;28;20186;-78
2022/05/23 10:52:34;;;;;;;2.93;1.57;;;;;;;;;;5029677;28;20214;-79
2022/05/23 10:55:09;;;;;;;2.00;1.30;;;;;;;;;;5030212;28;20183;-78
2022/05/23 10:57:50;;;;;;;2.13;1.30;;;;;;;;;;5029534;28;20239;-79
2022/05/23 11:00:19;;;;;;;0.97;0.97;;;;;;;;;;5029334;28;20198;-79
2022/05/23 11:02:54;;;;;;;3.60;1.27;;;;;;;;;;5029474;28;20247;-79
2022/05/23 11:05:29;;;;;;;1.40;1.20;;;;;;;;;;5029464;28;20190;-79
2022/05/23 11:08:20;;;;;;;1.50;1.40;;;;;;;;;;5029456;28;20218;-78
2022/05/23 11:10:53;;;;;;;1.37;1.27;;;;;;;;;;5029294;28;20186;-79
2022/05/23 11:13:35;;;;;;;1.63;1.40;;;;;;;;;;5030135;28;20288;-78
2022/05/23 11:16:08;;;;;;;2.50;1.40;;;;;;;;;;5029316;28;20191;-79
2022/05/23 11:18:45;;;;;;;1.53;1.43;;;;;;;;;;5029446;28;20191;-78
2022/05/23 11:21:17;;;;;;;1.60;1.10;;;;;;;;;;5029333;28;20209;-78
2022/05/23 11:23:46;;;;;;;1.27;1.17;;;;;;;;;;5029572;28;20189;-78
2022/05/23 11:26:18;;;;;;;2.80;1.80;;;;;;;;;;5028761;28;20571;-78
2022/05/23 11:34:24;;;;;;;1.73;1.30;;;;;;;;;;5029280;28;20251;-79
2022/05/23 11:37:01;;;;;;;1.53;1.30;;;;;;;;;;5028892;28;20282;-79
2022/05/23 11:39:49;;;;;;;2.47;1.30;;;;;;;;;;5029115;28;20220;-78
2022/05/23 11:42:18;;;;;;;1.50;1.10;;;;;;;;;;5029093;28;20191;-79
2022/05/23 11:48:40;;;;;;;4.70;1.40;;;;;;;;;;5029577;28;20290;-78
2022/05/23 11:51:15;;;;;;;2.10;1.47;;;;;;;;;;5029181;28;20187;-78
2022/05/23 11:53:47;;;;;;;2.40;1.70;;;;;;;;;;5028880;28;20190;-78
2022/05/23 11:56:33;;;;;;;3.27;1.43;;;;;;;;;;5029084;28;20561;-79
2022/05/23 11:59:01;;;;;;;1.10;1.10;;;;;;;;;;5028893;28;20554;-78
2022/05/23 12:01:30;;;;;;;1.13;1.03;;;;;;;;;;5028583;28;20231;-78
2022/05/23 12:04:27;;;;;;;2.43;1.10;;;;;;;;;;5028758;28;20285;-78
2022/05/23 12:06:54;;;;;;;4.23;1.33;;;;;;;;;;5028499;28;20251;-78
2022/05/23 12:09:38;;;;;;;2.53;1.43;;;;;;;;;;5029052;28;20199;-78
2022/05/23 12:12:41;;;;;;;4.10;1.47;;;;;;;;;;5028645;28;20224;-78
2022/05/23 12:15:09;;;;;;;2.53;1.03;;;;;;;;;;5029805;28;20551;-78
2022/05/23 12:17:36;;;;;;;1.60;1.20;;;;;;;;;;5028151;28;20587;-78
2022/05/23 12:20:07;;;;;;;2.33;1.10;;;;;;;;;;5028688;28;20659;-78
2022/05/23 12:22:35;;;;;;;1.00;0.90;;;;;;;;;;5028379;28;20681;-79
2022/05/23 12:25:26;;;;;;;3.43;1.50;;;;;;;;;;5028615;28;20199;-79
2022/05/23 12:28:10;;;;;;;2.10;1.07;;;;;;;;;;5028510;28;20203;-80
2022/05/23 12:30:42;;;;;;;1.30;1.20;;;;;;;;;;5028918;28;20573;-80
2022/05/23 12:33:20;;;;;;;2.37;0.87;;;;;;;;;;5031367;28;20183;-77
2022/05/23 12:35:53;;;;;;;0.80;0.80;;;;;;;;;;5031495;28;20187;-78
2022/05/23 12:38:29;;;;;;;3.20;1.07;;;;;;;;;;5032169;28;20195;-79
2022/05/23 12:41:08;;;;;;;1.65;1.50;;;;;;;;;;5031920;28;20190;-79
2022/05/23 12:43:49;;;;;;;1.27;1.03;;;;;;;;;;5031894;28;20243;-79
2022/05/23 12:46:26;;;;;;;1.17;1.10;;;;;;;;;;5031511;28;20575;-79
2022/05/23 12:49:21;;;;;;;1.73;1.30;;;;;;;;;;5031736;28;20203;-79
2022/05/23 12:55:25;;;;;;;0.93;0.93;;;;;;;;;;5031747;28;20282;-79
2022/05/23 12:58:11;;;;;;;3.27;1.20;;;;;;;;;;5031206;28;20697;-79
2022/05/23 13:00:43;;;;;;;0.93;0.93;;;;;;;;;;5031469;28;20234;-79
2022/05/23 13:03:15;;;;;;;3.07;1.20;;;;;;;;;;5031530;28;20190;-79
2022/05/23 13:05:45;;;;;;;0.90;0.90;;;;;;;;;;5031193;28;20209;-77
2022/05/23 13:08:18;;;;;;;2.40;1.10;;;;;;;;;;5031731;28;20218;-77
2022/05/23 13:10:51;;;;;;;2.13;1.10;;;;;;;;;;5031282;28;20190;-77
2022/05/23 13:13:25;;;;;;;3.13;1.30;;;;;;;;;;5031669;28;20255;-77
2022/05/23 13:15:52;;;;;;;1.17;0.90;;;;;;;;;;5030942;28;20719;-77
2022/05/23 13:23:52;;;;;;;3.40;1.10;;;;;;;;;;5031061;28;20312;-77
2022/05/23 13:26:20;;;;;;;4.63;1.30;;;;;;;;;;5030940;28;20191;-77
2022/05/23 13:28:51;;;;;;;1.17;0.87;;;;;;;;;;5030872;28;20227;-77
2022/05/23 13:31:27;;;;;;;1.10;1.10;;;;;;;;;;5030782;28;20223;-77
2022/05/23 13:33:56;;;;;;;0.97;0.90;;;;;;;;;;5031128;28;20207;-76
2022/05/23 13:36:23;;;;;;;2.33;1.10;;;;;;;;;;5030854;28;20199;-76
2022/05/23 13:39:04;;;;;;;0.90;0.90;;;;;;;;;;5031218;28;20628;-77
2022/05/23 13:41:32;;;;;;;1.40;1.10;;;;;;;;;;5030539;28;20186;-77
2022/05/23 13:44:01;;;;;;;0.83;0.83;;;;;;;;;;5029599;28;20245;-77
2022/05/23 13:46:32;;;;;;;2.53;1.27;;;;;;;;;;5030540;28;20214;-77
2022/05/23 13:49:03;;;;;;;1.10;1.10;;;;;;;;;;5030627;28;20264;-78
2022/05/23 13:51:32;;;;;;;1.93;1.20;;;;;;;;;;5030911;28;20621;-78
2022/05/23 13:54:02;;;;;;;0.90;0.90;;;;;;;;;;5030729;28;20285;-77
2022/05/23 13:56:30;;;;;;;2.80;1.30;;;;;;;;;;5031137;28;20187;-77
2022/05/23 13:59:03;;;;;;;1.30;0.87;;;;;;;;;;5030586;28;20634;-77
2022/05/23 14:01:33;;;;;;;1.23;1.13;;;;;;;;;;5030155;28;20661;-77
2022/05/23 14:04:02;;;;;;;1.20;1.10;;;;;;;;;;5030506;28;20202;-77
2022/05/23 14:06:33;;;;;;;1.83;1.23;;;;;;;;;;5030438;28;20285;-77
2022/05/23 14:09:03;;;;;;;1.87;1.00;;;;;;;;;;5030202;28;20241;-77
2022/05/23 14:11:32;;;;;;;1.77;1.67;;;;;;;;;;5030239;28;20237;-78
2022/05/23 14:14:11;;;;;;;1.90;1.03;;;;;;;;;;5030401;28;20582;-78
2022/05/23 14:16:39;;;;;;;1.47;1.03;;;;;;;;;;5030218;28;20187;-78
2022/05/23 14:19:19;;;;;;;2.47;1.37;;;;;;;;;;5030317;28;20244;-77
2022/05/23 14:21:46;;;;;;;3.23;1.03;;;;;;;;;;5030150;28;20198;-77
2022/05/23 14:24:18;;;;;;;6.23;1.17;;;;;;;;;;5030342;28;20195;-78
2022/05/23 14:27:05;;;;;;;2.73;1.20;;;;;;;;;;5030239;28;20195;-77
2022/05/23 14:29:34;;;;;;;1.07;0.97;;;;;;;;;;5030233;28;20229;-77
2022/05/23 14:32:01;;;;;;;2.20;1.10;;;;;;;;;;5030233;28;20195;-77
2022/05/23 14:34:30;;;;;;;1.23;1.00;;;;;;;;;;5030213;28;20579;-77
2022/05/23 14:36:59;;;;;;;2.00;1.10;;;;;;;;;;5030507;28;20205;-77
2022/05/23 14:39:29;;;;;;;1.10;0.97;;;;;;;;;;5030862;28;20195;-78
2022/05/23 14:41:57;;;;;;;1.13;1.13;;;;;;;;;;5043594;28;20691;-77
2022/05/23 14:44:31;;;;;;;1.87;1.30;;;;;;;;;;5049721;28;20209;-77
2022/05/23 14:47:03;;;;;;;3.23;1.57;;;;;;;;;;5044791;28;20202;-77
2022/05/23 14:49:32;;;;;;;3.70;1.30;;;;;;;;;;5049635;28;20294;-77
2022/05/23 14:52:11;;;;;;;1.30;1.20;;;;;;;;;;5049292;28;20197;-77
2022/05/23 15:03:10;;;;;;;1.20;1.10;;;;;;;;;;5049590;27;20202;-77
2022/05/23 15:05:37;;;;;;;2.93;1.13;;;;;;;;;;5048984;28;20670;-77
2022/05/23 15:08:05;;;;;;;2.03;1.03;;;;;;;;;;5048941;28;20228;-77
2022/05/23 15:10:33;;;;;;;1.83;1.70;;;;;;;;;;5049357;28;20207;-78
2022/05/23 15:13:00;;;;;;;1.57;1.40;;;;;;;;;;5049208;28;20202;-78
2022/05/23 15:15:28;;;;;;;1.77;1.20;;;;;;;;;;5049010;28;20289;-77
2022/05/23 15:17:55;;;;;;;2.33;1.20;;;;;;;;;;5049238;28;20189;-77
2022/05/23 15:20:24;;;;;;;2.70;1.23;;;;;;;;;;5049058;28;20194;-77
2022/05/23 15:22:52;;;;;;;1.40;1.30;;;;;;;;;;5049012;28;20204;-77
2022/05/23 15:25:19;;;;;;;2.10;1.20;;;;;;;;;;5048942;28;20664;-77
2022/05/23 15:27:47;;;;;;;1.30;1.20;;;;;;;;;;5048643;28;20608;-77
2022/05/23 15:30:19;;;;;;;1.30;1.20;;;;;;;;;;5048910;28;20202;-77
2022/05/23 15:32:47;;;;;;;1.47;1.37;;;;;;;;;;5049143;28;20201;-77
2022/05/23 15:35:16;;;;;;;1.40;1.30;;;;;;;;;;5048525;28;20198;-77
2022/05/23 15:37:45;;;;;;;1.97;1.70;;;;;;;;;;5048689;28;20258;-78
2022/05/23 15:40:14;;;;;;;1.23;1.10;;;;;;;;;;5049022;28;20212;-77
2022/05/23 15:42:42;;;;;;;2.70;1.30;;;;;;;;;;5048873;28;20658;-78
2022/05/23 15:45:12;;;;;;;4.23;1.23;;;;;;;;;;5043652;28;20202;-77
2022/05/23 15:47:40;;;;;;;2.90;1.40;;;;;;;;;;5028679;28;20208;-77
2022/05/23 15:50:09;;;;;;;1.43;1.33;;;;;;;;;;5043424;28;20202;-77
2022/05/23 15:52:36;;;;;;;2.30;1.37;;;;;;;;;;5048333;28;20206;-77
2022/05/23 15:55:07;;;;;;;1.50;1.40;;;;;;;;;;5048805;28;20275;-77
2022/05/23 15:57:36;;;;;;;2.77;1.70;;;;;;;;;;5048683;28;20643;-77
2022/05/23 16:00:08;;;;;;;3.37;1.77;;;;;;;;;;5048602;28;20198;-77
2022/05/23 16:02:39;;;;;;;2.07;1.37;;;;;;;;;;5048232;28;20635;-77
2022/05/23 16:05:07;;;;;;;1.97;1.60;;;;;;;;;;5047140;28;20642;-77
2022/05/23 16:07:35;;;;;;;2.03;1.60;;;;;;;;;;5047913;28;20262;-77
2022/05/23 16:10:03;;;;;;;4.93;1.60;;;;;;;;;;5050393;28;20254;-77
2022/05/23 16:12:33;;;;;;;2.23;1.17;;;;;;;;;;5051670;28;20254;-77
2022/05/23 16:15:01;;;;;;;2.27;2.00;;;;;;;;;;5052088;28;20567;-77
2022/05/23 16:17:29;;;;;;;1.93;1.70;;;;;;;;;;5052145;28;20205;-77